Terminal Aerodrome Forecast
Issued by NWS

Home | Current Version | Previous Version | Text Only | Print | Product List | Glossary On
Versions: 1 2 3 4 5 6 7 8 9 10 11 12 13 14 15 16 17
000
FTUS43 KDVN 282300
TAFCID
TAF
KCID 282337Z 2900/2924 17012KT P6SM FEW250
     FM290600 18014G22KT P6SM SCT120 BKN250
     FM291200 19015G24KT P6SM VCSH SCT070 OVC100 PROB30 2912/2918
      4SM -SHRA BKN050 OVC080
     FM291800 29017G30KT P6SM FEW100 SCT250=

USA.gov is the U.S. government's official web portal to all federal, state and local government web resources and services.